sensor_id;sensor_type;location;lat;lon;timestamp;pressure;altitude;pressure_sealevel;temperature;humidity
49825;BME280;35714;55.708;37.478;2022-12-18T00:02:20;98859.03;;;-1.63;64.73
49825;BME280;35714;55.708;37.478;2022-12-18T00:04:47;98852.41;;;-1.67;64.90
49825;BME280;35714;55.708;37.478;2022-12-18T00:07:12;98841.75;;;-1.67;64.93
49825;BME280;35714;55.708;37.478;2022-12-18T00:09:38;98845.78;;;-1.71;65.07
49825;BME280;35714;55.708;37.478;2022-12-18T00:12:03;98835.97;;;-1.71;64.82
49825;BME280;35714;55.708;37.478;2022-12-18T00:14:29;98832.81;;;-1.66;65.14
49825;BME280;35714;55.708;37.478;2022-12-18T00:16:55;98832.13;;;-1.60;65.01
49825;BME280;35714;55.708;37.478;2022-12-18T00:19:20;98821.97;;;-1.56;65.19
49825;BME280;35714;55.708;37.478;2022-12-18T00:21:46;98815.47;;;-1.54;64.89
49825;BME280;35714;55.708;37.478;2022-12-18T00:24:11;98815.13;;;-1.51;65.12
49825;BME280;35714;55.708;37.478;2022-12-18T00:26:37;98814.28;;;-1.51;64.97
49825;BME280;35714;55.708;37.478;2022-12-18T00:29:09;98818.78;;;-1.52;64.78
49825;BME280;35714;55.708;37.478;2022-12-18T00:31:35;98799.34;;;-1.52;64.81
49825;BME280;35714;55.708;37.478;2022-12-18T00:34:01;98797.19;;;-1.49;65.10
49825;BME280;35714;55.708;37.478;2022-12-18T00:36:28;98812.13;;;-1.48;64.93
49825;BME280;35714;55.708;37.478;2022-12-18T00:38:55;98807.16;;;-1.51;64.75
49825;BME280;35714;55.708;37.478;2022-12-18T00:41:21;98794.22;;;-1.54;64.72
49825;BME280;35714;55.708;37.478;2022-12-18T00:44:08;98791.56;;;-1.54;64.75
49825;BME280;35714;55.708;37.478;2022-12-18T00:46:34;98800.47;;;-1.47;64.65
49825;BME280;35714;55.708;37.478;2022-12-18T00:49:00;98797.53;;;-1.52;64.57
49825;BME280;35714;55.708;37.478;2022-12-18T00:51:26;98793.88;;;-1.51;64.64
49825;BME280;35714;55.708;37.478;2022-12-18T00:53:52;98779.72;;;-1.43;64.85
49825;BME280;35714;55.708;37.478;2022-12-18T00:56:17;98775.34;;;-1.36;64.96
49825;BME280;35714;55.708;37.478;2022-12-18T00:58:43;98763.19;;;-1.30;64.64
49825;BME280;35714;55.708;37.478;2022-12-18T01:01:09;98765.19;;;-1.32;64.52
49825;BME280;35714;55.708;37.478;2022-12-18T01:03:35;98756.19;;;-1.31;64.63
49825;BME280;35714;55.708;37.478;2022-12-18T01:06:05;98759.50;;;-1.29;64.39
49825;BME280;35714;55.708;37.478;2022-12-18T01:08:31;98757.53;;;-1.35;64.01
49825;BME280;35714;55.708;37.478;2022-12-18T01:10:56;98748.97;;;-1.46;64.05
49825;BME280;35714;55.708;37.478;2022-12-18T01:13:22;98740.69;;;-1.51;64.24
49825;BME280;35714;55.708;37.478;2022-12-18T01:15:49;98738.38;;;-1.54;63.72
49825;BME280;35714;55.708;37.478;2022-12-18T01:18:15;98732.44;;;-1.64;64.05
49825;BME280;35714;55.708;37.478;2022-12-18T01:20:41;98731.31;;;-1.70;64.04
49825;BME280;35714;55.708;37.478;2022-12-18T01:23:06;98738.44;;;-1.70;63.74
49825;BME280;35714;55.708;37.478;2022-12-18T01:25:33;98727.19;;;-1.72;63.97
49825;BME280;35714;55.708;37.478;2022-12-18T01:27:58;98745.13;;;-1.74;63.93
49825;BME280;35714;55.708;37.478;2022-12-18T01:30:24;98755.75;;;-1.74;63.95
49825;BME280;35714;55.708;37.478;2022-12-18T01:32:51;98749.94;;;-1.78;63.72
49825;BME280;35714;55.708;37.478;2022-12-18T01:35:18;98743.47;;;-1.75;63.80
49825;BME280;35714;55.708;37.478;2022-12-18T01:37:45;98748.44;;;-1.72;63.76
49825;BME280;35714;55.708;37.478;2022-12-18T01:40:11;98743.13;;;-1.72;64.00
49825;BME280;35714;55.708;37.478;2022-12-18T01:42:38;98731.31;;;-1.70;64.08
49825;BME280;35714;55.708;37.478;2022-12-18T01:49:59;98736.09;;;-1.65;64.00
49825;BME280;35714;55.708;37.478;2022-12-18T01:52:26;98744.75;;;-1.63;63.82
49825;BME280;35714;55.708;37.478;2022-12-18T01:54:53;98745.03;;;-1.58;63.94
49825;BME280;35714;55.708;37.478;2022-12-18T01:57:19;98742.22;;;-1.56;64.13
49825;BME280;35714;55.708;37.478;2022-12-18T01:59:46;98732.91;;;-1.52;63.95
49825;BME280;35714;55.708;37.478;2022-12-18T02:02:15;98728.88;;;-1.48;63.84
49825;BME280;35714;55.708;37.478;2022-12-18T02:04:41;98731.34;;;-1.47;64.01
49825;BME280;35714;55.708;37.478;2022-12-18T02:07:11;98731.00;;;-1.43;64.01
49825;BME280;35714;55.708;37.478;2022-12-18T02:09:42;98738.34;;;-1.46;63.97
49825;BME280;35714;55.708;37.478;2022-12-18T02:12:20;98738.69;;;-1.49;63.70
49825;BME280;35714;55.708;37.478;2022-12-18T02:20:17;98746.38;;;-1.54;64.05
49825;BME280;35714;55.708;37.478;2022-12-18T02:25:53;98744.34;;;-1.52;64.02
49825;BME280;35714;55.708;37.478;2022-12-18T02:28:23;98744.00;;;-1.49;64.16
49825;BME280;35714;55.708;37.478;2022-12-18T02:30:52;98736.66;;;-1.47;63.85
49825;BME280;35714;55.708;37.478;2022-12-18T02:33:18;98732.56;;;-1.49;63.74
49825;BME280;35714;55.708;37.478;2022-12-18T02:35:44;98738.69;;;-1.49;63.33
49825;BME280;35714;55.708;37.478;2022-12-18T02:38:14;98739.69;;;-1.50;63.64
49825;BME280;35714;55.708;37.478;2022-12-18T02:40:43;98733.72;;;-1.52;63.50
49825;BME280;35714;55.708;37.478;2022-12-18T02:43:14;98741.03;;;-1.54;63.37
49825;BME280;35714;55.708;37.478;2022-12-18T02:45:47;98744.69;;;-1.55;63.63
49825;BME280;35714;55.708;37.478;2022-12-18T02:48:14;98744.69;;;-1.55;63.40
49825;BME280;35714;55.708;37.478;2022-12-18T02:50:44;98747.69;;;-1.58;63.19
49825;BME280;35714;55.708;37.478;2022-12-18T02:53:19;98745.03;;;-1.58;63.46
49825;BME280;35714;55.708;37.478;2022-12-18T03:00:45;98741.06;;;-1.62;63.04
49825;BME280;35714;55.708;37.478;2022-12-18T03:08:44;98726.53;;;-1.74;63.08
49825;BME280;35714;55.708;37.478;2022-12-18T03:11:13;98731.50;;;-1.79;63.10
49825;BME280;35714;55.708;37.478;2022-12-18T03:13:49;98734.34;;;-1.81;63.09
49825;BME280;35714;55.708;37.478;2022-12-18T03:16:22;98741.19;;;-1.87;63.39
49825;BME280;35714;55.708;37.478;2022-12-18T03:18:52;98724.41;;;-1.87;63.02
49825;BME280;35714;55.708;37.478;2022-12-18T03:21:21;98728.91;;;-1.88;63.23
49825;BME280;35714;55.708;37.478;2022-12-18T03:23:49;98733.56;;;-1.90;63.03
49825;BME280;35714;55.708;37.478;2022-12-18T03:26:19;98754.13;;;-1.92;63.09
49825;BME280;35714;55.708;37.478;2022-12-18T03:28:50;98754.13;;;-1.92;63.28
49825;BME280;35714;55.708;37.478;2022-12-18T03:31:17;98745.53;;;-1.94;63.05
49825;BME280;35714;55.708;37.478;2022-12-18T03:33:47;98743.88;;;-1.95;63.06
49825;BME280;35714;55.708;37.478;2022-12-18T03:36:17;98743.38;;;-1.98;62.95
49825;BME280;35714;55.708;37.478;2022-12-18T03:38:43;98746.19;;;-2.00;63.29
49825;BME280;35714;55.708;37.478;2022-12-18T03:44:20;98733.28;;;-2.11;63.13
49825;BME280;35714;55.708;37.478;2022-12-18T03:54:13;98743.44;;;-2.15;63.09
49825;BME280;35714;55.708;37.478;2022-12-18T03:56:48;98748.56;;;-2.22;63.31
49825;BME280;35714;55.708;37.478;2022-12-18T03:59:16;98739.13;;;-2.24;63.42
49825;BME280;35714;55.708;37.478;2022-12-18T04:01:47;98749.41;;;-2.21;63.40
49825;BME280;35714;55.708;37.478;2022-12-18T04:04:15;98744.94;;;-2.21;63.40
49825;BME280;35714;55.708;37.478;2022-12-18T04:06:43;98732.63;;;-2.22;63.15
49825;BME280;35714;55.708;37.478;2022-12-18T04:09:11;98734.31;;;-2.21;63.10
49825;BME280;35714;55.708;37.478;2022-12-18T04:11:41;98753.22;;;-2.24;62.87
49825;BME280;35714;55.708;37.478;2022-12-18T04:14:10;98761.53;;;-2.27;63.20
49825;BME280;35714;55.708;37.478;2022-12-18T04:16:35;98772.16;;;-2.27;63.08
49825;BME280;35714;55.708;37.478;2022-12-18T04:19:04;98796.75;;;-2.25;63.37
49825;BME280;35714;55.708;37.478;2022-12-18T04:21:34;98796.75;;;-2.25;63.25
49825;BME280;35714;55.708;37.478;2022-12-18T04:24:00;98787.75;;;-2.24;63.28
49825;BME280;35714;55.708;37.478;2022-12-18T04:26:26;98778.47;;;-2.20;63.11
49825;BME280;35714;55.708;37.478;2022-12-18T04:29:13;98788.09;;;-2.27;62.82
49825;BME280;35714;55.708;37.478;2022-12-18T04:31:39;98806.03;;;-2.29;63.08
49825;BME280;35714;55.708;37.478;2022-12-18T04:34:04;98808.03;;;-2.31;63.18
49825;BME280;35714;55.708;37.478;2022-12-18T04:36:36;98820.44;;;-2.31;63.21
49825;BME280;35714;55.708;37.478;2022-12-18T04:39:02;98816.16;;;-2.32;63.24
49825;BME280;35714;55.708;37.478;2022-12-18T04:41:28;98807.34;;;-2.33;63.17
49825;BME280;35714;55.708;37.478;2022-12-18T04:43:53;98825.59;;;-2.38;63.43
49825;BME280;35714;55.708;37.478;2022-12-18T04:46:19;98829.41;;;-2.41;63.54
49825;BME280;35714;55.708;37.478;2022-12-18T04:48:45;98832.22;;;-2.42;63.59
49825;BME280;35714;55.708;37.478;2022-12-18T04:51:11;98827.94;;;-2.43;63.68
49825;BME280;35714;55.708;37.478;2022-12-18T04:53:38;98820.78;;;-2.43;63.78
49825;BME280;35714;55.708;37.478;2022-12-18T04:56:07;98825.63;;;-2.46;63.73
49825;BME280;35714;55.708;37.478;2022-12-18T04:58:34;98826.28;;;-2.44;63.75
49825;BME280;35714;55.708;37.478;2022-12-18T05:00:59;98834.22;;;-2.44;63.78
49825;BME280;35714;55.708;37.478;2022-12-18T05:03:25;98818.97;;;-2.42;63.74
49825;BME280;35714;55.708;37.478;2022-12-18T05:05:50;98823.94;;;-2.47;63.59
49825;BME280;35714;55.708;37.478;2022-12-18T05:08:16;98830.44;;;-2.50;63.81
49825;BME280;35714;55.708;37.478;2022-12-18T05:10:42;98829.59;;;-2.59;63.75
49825;BME280;35714;55.708;37.478;2022-12-18T05:13:07;98832.56;;;-2.62;63.93
49825;BME280;35714;55.708;37.478;2022-12-18T05:15:33;98831.44;;;-2.59;63.89
49825;BME280;35714;55.708;37.478;2022-12-18T05:17:59;98832.09;;;-2.57;63.84
49825;BME280;35714;55.708;37.478;2022-12-18T05:20:25;98842.53;;;-2.56;64.00
49825;BME280;35714;55.708;37.478;2022-12-18T05:22:52;98835.72;;;-2.58;63.92
49825;BME280;35714;55.708;37.478;2022-12-18T05:25:17;98853.16;;;-2.56;63.81
49825;BME280;35714;55.708;37.478;2022-12-18T05:27:43;98869.72;;;-2.62;63.67
49825;BME280;35714;55.708;37.478;2022-12-18T05:30:09;98865.25;;;-2.61;63.84
49825;BME280;35714;55.708;37.478;2022-12-18T05:32:35;98869.25;;;-2.65;63.47
49825;BME280;35714;55.708;37.478;2022-12-18T05:35:00;98867.56;;;-2.66;63.72
49825;BME280;35714;55.708;37.478;2022-12-18T05:37:26;98873.38;;;-2.63;63.56
49825;BME280;35714;55.708;37.478;2022-12-18T05:39:52;98882.00;;;-2.61;63.85
49825;BME280;35714;55.708;37.478;2022-12-18T05:42:17;98887.00;;;-2.58;63.55
49825;BME280;35714;55.708;37.478;2022-12-18T05:44:43;98892.97;;;-2.56;63.49
49825;BME280;35714;55.708;37.478;2022-12-18T05:47:09;98891.13;;;-2.55;63.37
49825;BME280;35714;55.708;37.478;2022-12-18T05:49:34;98905.25;;;-2.55;63.17
49825;BME280;35714;55.708;37.478;2022-12-18T05:52:00;98892.31;;;-2.58;63.12
49825;BME280;35714;55.708;37.478;2022-12-18T05:54:28;98906.56;;;-2.59;63.03
49825;BME280;35714;55.708;37.478;2022-12-18T05:56:53;98913.53;;;-2.58;62.98
49825;BME280;35714;55.708;37.478;2022-12-18T05:59:19;98911.22;;;-2.61;63.03
49825;BME280;35714;55.708;37.478;2022-12-18T06:01:45;98908.88;;;-2.64;63.04
49825;BME280;35714;55.708;37.478;2022-12-18T06:04:10;98904.38;;;-2.63;63.19
49825;BME280;35714;55.708;37.478;2022-12-18T06:06:36;98914.50;;;-2.67;63.04
49825;BME280;35714;55.708;37.478;2022-12-18T06:09:02;98919.44;;;-2.72;63.02
49825;BME280;35714;55.708;37.478;2022-12-18T06:11:33;98921.44;;;-2.74;63.28
49825;BME280;35714;55.708;37.478;2022-12-18T06:13:59;98926.09;;;-2.76;63.41
49825;BME280;35714;55.708;37.478;2022-12-18T06:16:25;98933.03;;;-2.75;63.69
49825;BME280;35714;55.708;37.478;2022-12-18T06:18:51;98933.03;;;-2.75;63.88
49825;BME280;35714;55.708;37.478;2022-12-18T06:21:16;98948.31;;;-2.77;64.06
49825;BME280;35714;55.708;37.478;2022-12-18T06:23:42;98950.28;;;-2.79;64.20
49825;BME280;35714;55.708;37.478;2022-12-18T06:26:10;98948.47;;;-2.79;64.44
49825;BME280;35714;55.708;37.478;2022-12-18T06:28:36;98949.97;;;-2.76;64.67
49825;BME280;35714;55.708;37.478;2022-12-18T06:31:05;98957.28;;;-2.78;64.92
49825;BME280;35714;55.708;37.478;2022-12-18T06:33:31;98961.56;;;-2.77;64.82
49825;BME280;35714;55.708;37.478;2022-12-18T06:36:01;98957.63;;;-2.73;65.07
49825;BME280;35714;55.708;37.478;2022-12-18T06:38:26;98969.22;;;-2.66;64.87
49825;BME280;35714;55.708;37.478;2022-12-18T06:40:52;98981.03;;;-2.60;64.62
49825;BME280;35714;55.708;37.478;2022-12-18T06:43:17;98994.16;;;-2.50;64.92
49825;BME280;35714;55.708;37.478;2022-12-18T06:45:43;98998.50;;;-2.49;64.97
49825;BME280;35714;55.708;37.478;2022-12-18T06:48:08;99003.31;;;-2.45;64.88
49825;BME280;35714;55.708;37.478;2022-12-18T06:50:34;99002.47;;;-2.45;64.61
49825;BME280;35714;55.708;37.478;2022-12-18T06:53:00;99003.31;;;-2.45;64.95
49825;BME280;35714;55.708;37.478;2022-12-18T06:55:25;99014.75;;;-2.44;66.01
49825;BME280;35714;55.708;37.478;2022-12-18T06:57:51;99011.78;;;-2.41;65.96
49825;BME280;35714;55.708;37.478;2022-12-18T07:00:16;99028.38;;;-2.39;66.57
49825;BME280;35714;55.708;37.478;2022-12-18T07:02:42;99017.94;;;-2.32;66.04
49825;BME280;35714;55.708;37.478;2022-12-18T07:05:08;99023.75;;;-2.29;66.11
49825;BME280;35714;55.708;37.478;2022-12-18T07:07:34;99025.94;;;-2.24;65.80
49825;BME280;35714;55.708;37.478;2022-12-18T07:10:00;99034.72;;;-2.15;65.23
49825;BME280;35714;55.708;37.478;2022-12-18T07:12:26;99034.41;;;-2.12;65.83
49825;BME280;35714;55.708;37.478;2022-12-18T07:14:52;99043.88;;;-2.10;65.69
49825;BME280;35714;55.708;37.478;2022-12-18T07:17:17;99042.91;;;-2.09;65.66
49825;BME280;35714;55.708;37.478;2022-12-18T07:19:43;99051.69;;;-2.08;65.21
49825;BME280;35714;55.708;37.478;2022-12-18T07:22:08;99059.00;;;-2.10;65.53
49825;BME280;35714;55.708;37.478;2022-12-18T07:24:34;99070.13;;;-2.15;64.98
49825;BME280;35714;55.708;37.478;2022-12-18T07:27:00;99066.28;;;-2.12;64.67
49825;BME280;35714;55.708;37.478;2022-12-18T07:29:25;99078.91;;;-2.14;64.84
49825;BME280;35714;55.708;37.478;2022-12-18T07:31:51;99080.25;;;-2.10;64.84
49825;BME280;35714;55.708;37.478;2022-12-18T07:34:16;99080.22;;;-2.19;64.56
49825;BME280;35714;55.708;37.478;2022-12-18T07:36:42;99077.22;;;-2.24;63.84
49825;BME280;35714;55.708;37.478;2022-12-18T07:39:07;99079.38;;;-2.27;64.69
49825;BME280;35714;55.708;37.478;2022-12-18T07:41:33;99078.56;;;-2.20;64.15
49825;BME280;35714;55.708;37.478;2022-12-18T07:44:09;99075.25;;;-2.13;64.47
49825;BME280;35714;55.708;37.478;2022-12-18T07:46:34;99072.13;;;-2.09;64.51
49825;BME280;35714;55.708;37.478;2022-12-18T07:49:00;99079.94;;;-2.07;64.81
49825;BME280;35714;55.708;37.478;2022-12-18T07:51:25;99075.25;;;-2.13;64.16
49825;BME280;35714;55.708;37.478;2022-12-18T07:53:51;99072.94;;;-2.08;63.73
49825;BME280;35714;55.708;37.478;2022-12-18T07:56:16;99082.59;;;-2.07;63.67
49825;BME280;35714;55.708;37.478;2022-12-18T07:58:42;99087.91;;;-2.07;63.66
49825;BME280;35714;55.708;37.478;2022-12-18T08:01:13;99090.56;;;-2.07;63.57
49825;BME280;35714;55.708;37.478;2022-12-18T08:03:39;99092.72;;;-2.03;63.48
49825;BME280;35714;55.708;37.478;2022-12-18T08:06:06;99094.22;;;-2.00;63.73
49825;BME280;35714;55.708;37.478;2022-12-18T08:08:32;99105.84;;;-2.01;63.86
49825;BME280;35714;55.708;37.478;2022-12-18T08:10:57;99104.84;;;-2.00;63.75
49825;BME280;35714;55.708;37.478;2022-12-18T08:13:23;99118.13;;;-2.00;64.42
49825;BME280;35714;55.708;37.478;2022-12-18T08:15:58;99136.88;;;-2.02;63.96
49825;BME280;35714;55.708;37.478;2022-12-18T08:18:24;99144.38;;;-1.97;63.99
49825;BME280;35714;55.708;37.478;2022-12-18T08:20:50;99142.41;;;-1.95;65.13
49825;BME280;35714;55.708;37.478;2022-12-18T08:23:19;99149.69;;;-1.97;64.70
49825;BME280;35714;55.708;37.478;2022-12-18T08:25:45;99155.31;;;-2.00;64.64
49825;BME280;35714;55.708;37.478;2022-12-18T08:28:10;99149.19;;;-2.01;64.41
49825;BME280;35714;55.708;37.478;2022-12-18T08:30:36;99163.13;;;-1.98;65.62
49825;BME280;35714;55.708;37.478;2022-12-18T08:33:01;99158.00;;;-1.92;65.14
49825;BME280;35714;55.708;37.478;2022-12-18T08:35:27;99160.00;;;-1.94;65.72
49825;BME280;35714;55.708;37.478;2022-12-18T08:37:53;99168.97;;;-1.95;65.57
49825;BME280;35714;55.708;37.478;2022-12-18T08:40:27;99162.97;;;-1.89;64.96
49825;BME280;35714;55.708;37.478;2022-12-18T08:42:52;99169.00;;;-1.78;65.13
49825;BME280;35714;55.708;37.478;2022-12-18T08:45:36;99182.00;;;-1.67;65.50
49825;BME280;35714;55.708;37.478;2022-12-18T08:48:02;99176.34;;;-1.64;65.82
49825;BME280;35714;55.708;37.478;2022-12-18T08:50:28;99170.38;;;-1.58;65.69
49825;BME280;35714;55.708;37.478;2022-12-18T08:52:53;99177.38;;;-1.57;65.28
49825;BME280;35714;55.708;37.478;2022-12-18T08:55:21;99174.56;;;-1.55;65.15
49825;BME280;35714;55.708;37.478;2022-12-18T08:57:49;99178.38;;;-1.50;65.54
49825;BME280;35714;55.708;37.478;2022-12-18T09:00:15;99177.06;;;-1.46;65.96
49825;BME280;35714;55.708;37.478;2022-12-18T09:02:40;99160.13;;;-1.44;65.71
49825;BME280;35714;55.708;37.478;2022-12-18T09:05:06;99167.94;;;-1.43;65.36
49825;BME280;35714;55.708;37.478;2022-12-18T09:07:31;99173.75;;;-1.39;64.54
49825;BME280;35714;55.708;37.478;2022-12-18T09:09:57;99186.56;;;-1.35;65.21
49825;BME280;35714;55.708;37.478;2022-12-18T09:12:22;99189.72;;;-1.39;65.29
49825;BME280;35714;55.708;37.478;2022-12-18T09:14:48;99188.88;;;-1.40;64.96
49825;BME280;35714;55.708;37.478;2022-12-18T09:17:13;99203.34;;;-1.34;63.36
49825;BME280;35714;55.708;37.478;2022-12-18T09:21:37;99217.00;;;-1.21;62.56
49825;BME280;35714;55.708;37.478;2022-12-18T09:24:04;99220.66;;;-1.14;61.80
49825;BME280;35714;55.708;37.478;2022-12-18T09:26:30;99228.31;;;-1.11;60.47
49825;BME280;35714;55.708;37.478;2022-12-18T09:28:55;99215.34;;;-1.14;61.04
49825;BME280;35714;55.708;37.478;2022-12-18T09:31:22;99225.31;;;-1.16;60.61
49825;BME280;35714;55.708;37.478;2022-12-18T09:33:48;99232.47;;;-1.16;60.59
49825;BME280;35714;55.708;37.478;2022-12-18T09:36:14;99237.47;;;-1.13;60.35
49825;BME280;35714;55.708;37.478;2022-12-18T09:38:40;99248.28;;;-1.15;60.22
49825;BME280;35714;55.708;37.478;2022-12-18T09:41:15;99246.75;;;-1.17;60.31
49825;BME280;35714;55.708;37.478;2022-12-18T09:43:42;99256.91;;;-1.13;60.51
49825;BME280;35714;55.708;37.478;2022-12-18T09:46:11;99253.59;;;-1.06;60.54
49825;BME280;35714;55.708;37.478;2022-12-18T09:48:42;99253.94;;;-1.01;60.53
49825;BME280;35714;55.708;37.478;2022-12-18T09:51:12;99250.94;;;-0.98;60.22
49825;BME280;35714;55.708;37.478;2022-12-18T09:53:38;99252.63;;;-0.97;60.17
49825;BME280;35714;55.708;37.478;2022-12-18T09:56:06;99253.44;;;-0.97;60.13
49825;BME280;35714;55.708;37.478;2022-12-18T09:58:47;99266.75;;;-0.97;60.17
49825;BME280;35714;55.708;37.478;2022-12-18T10:01:15;99255.13;;;-0.96;59.99
49825;BME280;35714;55.708;37.478;2022-12-18T10:03:43;99272.88;;;-1.04;59.97
49825;BME280;35714;55.708;37.478;2022-12-18T10:11:14;99267.22;;;-1.18;60.15
49825;BME280;35714;55.708;37.478;2022-12-18T10:13:48;99268.53;;;-1.22;60.24
49825;BME280;35714;55.708;37.478;2022-12-18T10:16:16;99271.19;;;-1.22;60.42
49825;BME280;35714;55.708;37.478;2022-12-18T10:21:12;99268.88;;;-1.17;59.96
49825;BME280;35714;55.708;37.478;2022-12-18T10:23:47;99258.22;;;-1.25;59.75
49825;BME280;35714;55.708;37.478;2022-12-18T10:26:16;99272.66;;;-1.36;60.02
49825;BME280;35714;55.708;37.478;2022-12-18T10:28:42;99280.78;;;-1.37;59.95
49825;BME280;35714;55.708;37.478;2022-12-18T10:31:26;99274.81;;;-1.39;60.14
49825;BME280;35714;55.708;37.478;2022-12-18T10:33:55;99274.63;;;-1.46;60.27
49825;BME280;35714;55.708;37.478;2022-12-18T10:36:20;99270.97;;;-1.45;60.28
49825;BME280;35714;55.708;37.478;2022-12-18T10:38:46;99273.13;;;-1.40;60.19
49825;BME280;35714;55.708;37.478;2022-12-18T10:43:48;99285.25;;;-1.46;60.09
49825;BME280;35714;55.708;37.478;2022-12-18T10:46:33;99288.41;;;-1.51;60.32
49825;BME280;35714;55.708;37.478;2022-12-18T10:48:59;99291.22;;;-1.52;60.54
49825;BME280;35714;55.708;37.478;2022-12-18T10:51:29;99311.63;;;-1.53;60.55
49825;BME280;35714;55.708;37.478;2022-12-18T10:53:56;99320.63;;;-1.54;60.53
49825;BME280;35714;55.708;37.478;2022-12-18T10:56:24;99327.28;;;-1.50;60.76
49825;BME280;35714;55.708;37.478;2022-12-18T10:59:06;99339.13;;;-1.44;60.52
49825;BME280;35714;55.708;37.478;2022-12-18T11:01:45;99336.78;;;-1.47;60.40
49825;BME280;35714;55.708;37.478;2022-12-18T11:04:15;99339.13;;;-1.44;60.47
49825;BME280;35714;55.708;37.478;2022-12-18T11:06:55;99350.22;;;-1.49;60.25
49825;BME280;35714;55.708;37.478;2022-12-18T11:09:22;99348.53;;;-1.50;60.46
49825;BME280;35714;55.708;37.478;2022-12-18T11:11:50;99343.22;;;-1.50;60.55
49825;BME280;35714;55.708;37.478;2022-12-18T11:14:25;99335.56;;;-1.53;60.63
49825;BME280;35714;55.708;37.478;2022-12-18T11:16:51;99339.59;;;-1.49;60.55
49825;BME280;35714;55.708;37.478;2022-12-18T11:19:36;99338.75;;;-1.49;60.83
49825;BME280;35714;55.708;37.478;2022-12-18T11:22:03;99342.09;;;-1.47;60.90
49825;BME280;35714;55.708;37.478;2022-12-18T11:24:42;99353.22;;;-1.43;60.75
49825;BME280;35714;55.708;37.478;2022-12-18T11:27:15;99343.75;;;-1.46;60.62
49825;BME280;35714;55.708;37.478;2022-12-18T11:29:42;99347.91;;;-1.43;60.95
49825;BME280;35714;55.708;37.478;2022-12-18T11:34:41;99361.19;;;-1.52;61.01
49825;BME280;35714;55.708;37.478;2022-12-18T11:37:10;99362.84;;;-1.51;61.14
49825;BME280;35714;55.708;37.478;2022-12-18T11:39:37;99353.22;;;-1.43;61.34
49825;BME280;35714;55.708;37.478;2022-12-18T11:45:38;99364.19;;;-1.47;60.84
49825;BME280;35714;55.708;37.478;2022-12-18T11:47:46;99371.16;;;-1.54;61.09
49825;BME280;35714;55.708;37.478;2022-12-18T11:50:38;99374.31;;;-1.50;61.19
49825;BME280;35714;55.708;37.478;2022-12-18T11:53:11;99387.66;;;-1.42;61.11
49825;BME280;35714;55.708;37.478;2022-12-18T12:00:40;99409.38;;;-1.47;60.61
49825;BME280;35714;55.708;37.478;2022-12-18T12:18:41;99448.56;;;-1.57;61.10
49825;BME280;35714;55.708;37.478;2022-12-18T12:21:23;99444.91;;;-1.56;60.98
49825;BME280;35714;55.708;37.478;2022-12-18T12:23:55;99451.88;;;-1.55;60.66
49825;BME280;35714;55.708;37.478;2022-12-18T12:40:13;99479.59;;;-1.84;61.45
49825;BME280;35714;55.708;37.478;2022-12-18T12:42:43;99483.75;;;-1.81;61.48
49825;BME280;35714;55.708;37.478;2022-12-18T12:45:32;99497.19;;;-1.83;61.15
49825;BME280;35714;55.708;37.478;2022-12-18T12:47:59;99503.69;;;-1.85;61.37
49825;BME280;35714;55.708;37.478;2022-12-18T12:50:26;99509.28;;;-1.88;61.56
49825;BME280;35714;55.708;37.478;2022-12-18T12:52:53;99518.41;;;-1.91;61.38
49825;BME280;35714;55.708;37.478;2022-12-18T12:55:21;99519.53;;;-1.93;61.36
49825;BME280;35714;55.708;37.478;2022-12-18T13:00:39;99531.84;;;-2.10;61.59
49825;BME280;35714;55.708;37.478;2022-12-18T13:03:08;99533.13;;;-2.14;61.61
49825;BME280;35714;55.708;37.478;2022-12-18T13:08:06;99562.03;;;-2.11;61.87
49825;BME280;35714;55.708;37.478;2022-12-18T13:10:36;99551.56;;;-2.13;61.75
49825;BME280;35714;55.708;37.478;2022-12-18T13:13:06;99561.75;;;-2.08;61.88
49825;BME280;35714;55.708;37.478;2022-12-18T13:20:38;99577.06;;;-2.02;61.73
49825;BME280;35714;55.708;37.478;2022-12-18T13:26:34;99586.03;;;-2.03;61.91
49825;BME280;35714;55.708;37.478;2022-12-18T13:31:13;99589.38;;;-2.01;61.67
49825;BME280;35714;55.708;37.478;2022-12-18T13:33:45;99592.03;;;-2.01;61.65
49825;BME280;35714;55.708;37.478;2022-12-18T13:38:40;99607.44;;;-2.05;61.52
49825;BME280;35714;55.708;37.478;2022-12-18T13:43:47;99616.56;;;-2.07;62.01
49825;BME280;35714;55.708;37.478;2022-12-18T13:46:17;99621.56;;;-2.04;61.51
49825;BME280;35714;55.708;37.478;2022-12-18T13:51:16;99642.25;;;-2.08;61.82
49825;BME280;35714;55.708;37.478;2022-12-18T13:53:44;99650.38;;;-2.09;61.76
49825;BME280;35714;55.708;37.478;2022-12-18T13:56:18;99648.72;;;-2.10;61.91
49825;BME280;35714;55.708;37.478;2022-12-18T13:58:46;99657.97;;;-2.14;61.85
49825;BME280;35714;55.708;37.478;2022-12-18T14:01:28;99654.63;;;-2.16;62.04
49825;BME280;35714;55.708;37.478;2022-12-18T14:04:08;99657.44;;;-2.18;62.17
49825;BME280;35714;55.708;37.478;2022-12-18T14:06:34;99661.06;;;-2.19;62.35
49825;BME280;35714;55.708;37.478;2022-12-18T14:08:59;99670.84;;;-2.20;62.32
49825;BME280;35714;55.708;37.478;2022-12-18T14:11:25;99674.78;;;-2.24;62.00
49825;BME280;35714;55.708;37.478;2022-12-18T14:13:51;99689.63;;;-2.31;62.14
49825;BME280;35714;55.708;37.478;2022-12-18T14:16:17;99690.75;;;-2.33;62.38
49825;BME280;35714;55.708;37.478;2022-12-18T14:21:27;99702.06;;;-2.31;62.26
49825;BME280;35714;55.708;37.478;2022-12-18T14:26:39;99709.50;;;-2.35;62.00
49825;BME280;35714;55.708;37.478;2022-12-18T14:29:24;99712.00;;;-2.33;61.81
49825;BME280;35714;55.708;37.478;2022-12-18T14:32:06;99721.78;;;-2.34;61.49
49825;BME280;35714;55.708;37.478;2022-12-18T14:34:32;99704.19;;;-2.35;61.51
49825;BME280;35714;55.708;37.478;2022-12-18T14:36:57;99721.78;;;-2.34;61.42
49825;BME280;35714;55.708;37.478;2022-12-18T14:39:23;99723.44;;;-2.33;61.29
49825;BME280;35714;55.708;37.478;2022-12-18T14:41:50;99739.09;;;-2.30;61.09
49825;BME280;35714;55.708;37.478;2022-12-18T14:44:16;99738.13;;;-2.29;60.99
49825;BME280;35714;55.708;37.478;2022-12-18T14:46:45;99738.69;;;-2.35;60.85
49825;BME280;35714;55.708;37.478;2022-12-18T14:49:30;99745.25;;;-2.39;60.87
49825;BME280;35714;55.708;37.478;2022-12-18T14:52:03;99754.53;;;-2.43;60.72